Time;durP1;ratioP1;P1;durP2;ratioP2;P2;SDS_P1;SDS_P2;PMS_P1;PMS_P2;Temp;Humidity;BMP_temperature;BMP_pressure;BME280_temperature;BME280_humidity;BME280_pressure;Samples;Min_cycle;Max_cycle;Signal;HPM_P1;HPM_P2
2023/10/07 00:02:55;;;;;;;5.50;3.30;;;;;;;14.71;79.50;99892.02;131049;1257;107553;-78
2023/10/07 00:06:01;;;;;;;5.90;3.60;;;;;;;14.71;79.19;99883.80;131134;1255;107893;-80
2023/10/07 00:09:10;;;;;;;5.90;3.70;;;;;;;14.70;78.82;99878.44;130906;1256;108847;-79
2023/10/07 00:12:19;;;;;;;5.80;3.10;;;;;;;14.67;78.66;99883.05;131109;1253;106626;-79
2023/10/07 00:15:28;;;;;;;4.90;3.00;;;;;;;14.64;78.59;99877.98;130964;1257;107802;-80
2023/10/07 00:18:35;;;;;;;5.00;3.10;;;;;;;14.62;78.59;99879.39;131011;1254;107090;-79
2023/10/07 00:21:58;;;;;;;8.90;3.20;;;;;;;14.63;78.62;99868.87;130940;1254;107183;-79
2023/10/07 00:25:05;;;;;;;5.50;3.40;;;;;;;14.68;78.21;99863.59;130967;1266;106496;-79
2023/10/07 00:28:19;;;;;;;9.50;3.20;;;;;;;14.72;77.92;99858.31;130946;1257;108749;-80
2023/10/07 00:31:27;;;;;;;7.10;3.30;;;;;;;14.75;77.96;99858.14;130899;1267;107118;-80
2023/10/07 00:34:38;;;;;;;6.40;3.50;;;;;;;14.76;77.92;99848.82;130963;1266;108828;-80
2023/10/07 00:37:44;;;;;;;7.90;3.70;;;;;;;14.76;77.42;99841.20;131056;1256;106857;-80
2023/10/07 00:40:56;;;;;;;7.10;3.40;;;;;;;14.75;77.39;99842.39;130960;1265;107408;-80
2023/10/07 00:44:16;;;;;;;6.00;3.60;;;;;;;14.73;77.35;99836.84;130898;1257;106628;-80
2023/10/07 00:47:23;;;;;;;5.10;3.20;;;;;;;14.71;77.42;99829.09;130962;1266;108787;-80
2023/10/07 00:50:28;;;;;;;7.70;3.00;;;;;;;14.70;77.22;99825.40;130771;1263;176820;-80
2023/10/07 00:53:44;;;;;;;5.40;3.30;;;;;;;14.72;77.01;99812.65;130877;1254;107528;-81
2023/10/07 00:56:52;;;;;;;8.10;3.40;;;;;;;14.77;76.74;99811.71;130987;1257;106900;-80
2023/10/07 01:00:01;;;;;;;6.00;3.10;;;;;;;14.81;76.39;99799.69;130978;1256;107386;-80
2023/10/07 01:03:17;;;;;;;6.60;2.90;;;;;;;14.85;76.38;99799.52;130789;1259;108753;-79
2023/10/07 01:06:26;;;;;;;6.70;3.30;;;;;;;14.88;76.40;99793.64;131067;1256;107621;-80
2023/10/07 01:09:32;;;;;;;7.20;3.10;;;;;;;14.89;76.19;99802.38;130944;1266;106723;-79
2023/10/07 01:12:39;;;;;;;6.30;3.20;;;;;;;14.91;76.01;99801.89;131074;1257;107851;-80
2023/10/07 01:15:48;;;;;;;6.70;3.50;;;;;;;14.91;75.44;99801.66;130918;1266;107089;-78
2023/10/07 01:19:04;;;;;;;5.50;2.90;;;;;;;14.91;75.25;99806.15;130989;1257;107844;-78
2023/10/07 01:22:19;;;;;;;6.60;3.10;;;;;;;14.91;75.51;99805.58;131064;1260;107332;-78
2023/10/07 01:25:28;;;;;;;6.40;3.10;;;;;;;14.91;75.72;99797.55;130898;1257;107710;-78
2023/10/07 01:28:40;;;;;;;7.40;3.30;;;;;;;14.90;76.88;99812.38;131040;1257;106581;-78
2023/10/07 01:31:59;;;;;;;5.20;3.30;;;;;;;14.84;77.85;99803.24;130921;1257;106606;-78
2023/10/07 01:35:11;;;;;;;6.70;3.50;;;;;;;14.77;78.22;99798.25;130760;1267;107432;-78
2023/10/07 01:38:18;;;;;;;5.30;3.20;;;;;;;14.70;78.63;99792.08;130937;1258;107134;-78
2023/10/07 01:41:27;;;;;;;5.40;3.30;;;;;;;14.62;79.12;99784.67;130986;1256;107724;-78
2023/10/07 01:44:38;;;;;;;5.00;3.00;;;;;;;14.53;79.33;99765.13;130918;1266;106993;-78
2023/10/07 01:47:44;;;;;;;5.30;3.10;;;;;;;14.47;79.67;99751.08;130995;1260;106677;-78
2023/10/07 01:50:52;;;;;;;6.30;3.50;;;;;;;14.43;79.55;99741.08;131075;1266;106949;-78
2023/10/07 01:54:02;;;;;;;4.60;3.00;;;;;;;14.41;79.57;99736.31;130970;1267;107421;-78
2023/10/07 01:57:09;;;;;;;5.40;3.40;;;;;;;14.38;79.44;99740.77;130922;1254;106649;-78
2023/10/07 02:00:35;;;;;;;6.10;3.40;;;;;;;14.34;79.77;99737.77;130933;1254;107868;-79
2023/10/07 02:03:43;;;;;;;5.70;3.40;;;;;;;14.27;79.62;99724.98;130842;1260;106033;-78
2023/10/07 02:06:51;;;;;;;4.50;2.80;;;;;;;14.23;79.54;99719.31;131033;1254;106751;-79
2023/10/07 02:09:57;;;;;;;5.60;3.10;;;;;;;14.23;79.39;99713.95;130980;1265;108593;-78
2023/10/07 02:13:04;;;;;;;6.30;3.10;;;;;;;14.25;79.35;99708.72;130979;1266;107767;-78
2023/10/07 02:16:11;;;;;;;6.10;3.40;;;;;;;14.28;79.09;99714.48;130897;1257;106459;-78
2023/10/07 02:19:27;;;;;;;5.20;3.30;;;;;;;14.30;78.92;99712.61;130765;1256;108814;-78
2023/10/07 02:22:33;;;;;;;5.10;3.20;;;;;;;14.29;78.87;99703.89;130803;1258;107112;-78
2023/10/07 02:25:40;;;;;;;5.10;3.00;;;;;;;14.30;78.66;99703.79;130952;1257;107363;-78
2023/10/07 02:28:50;;;;;;;6.50;2.60;;;;;;;14.29;78.62;99699.31;130756;1256;107618;-79
2023/10/07 02:32:07;;;;;;;4.50;3.00;;;;;;;14.28;78.46;99704.08;130871;1258;108095;-78
2023/10/07 02:35:17;;;;;;;4.90;2.90;;;;;;;14.29;78.41;99704.10;130990;1267;106879;-78
2023/10/07 02:38:29;;;;;;;8.60;3.00;;;;;;;14.32;78.33;99697.69;130739;1257;107651;-78
2023/10/07 02:41:35;;;;;;;7.20;2.90;;;;;;;14.35;78.11;99692.02;131019;1256;106632;-78
2023/10/07 02:44:41;;;;;;;5.10;2.80;;;;;;;14.37;77.96;99688.08;130924;1254;107567;-78
2023/10/07 02:47:50;;;;;;;5.90;3.00;;;;;;;14.39;77.70;99680.37;130969;1257;107961;-79
2023/10/07 02:51:06;;;;;;;5.70;2.80;;;;;;;14.38;77.70;99686.89;130878;1257;106880;-78
2023/10/07 02:54:17;;;;;;;4.30;2.80;;;;;;;14.37;77.51;99675.27;130958;1257;107355;-79
2023/10/07 02:57:34;;;;;;;7.00;3.10;;;;;;;14.34;77.63;99665.19;130831;1258;106170;-78
2023/10/07 03:00:49;;;;;;;4.80;2.80;;;;;;;14.34;77.61;99653.73;130965;1266;106726;-78
2023/10/07 03:04:00;;;;;;;5.50;3.00;;;;;;;14.38;77.51;99662.60;130926;1257;107753;-78
2023/10/07 03:07:13;;;;;;;4.60;2.80;;;;;;;14.43;77.41;99663.40;131150;1254;109360;-79
2023/10/07 03:10:28;;;;;;;4.10;2.80;;;;;;;14.45;77.10;99656.98;130962;1266;107972;-79
2023/10/07 03:13:37;;;;;;;4.60;2.50;;;;;;;14.49;77.28;99654.45;130963;1256;107726;-78
2023/10/07 03:16:46;;;;;;;6.80;2.90;;;;;;;14.50;77.07;99646.86;131083;1257;108453;-78
2023/10/07 03:19:56;;;;;;;4.40;2.90;;;;;;;14.49;76.88;99642.73;130830;1257;108113;-79
2023/10/07 03:23:14;;;;;;;6.20;2.60;;;;;;;14.48;76.77;99637.51;130790;1256;106610;-78
2023/10/07 03:26:21;;;;;;;4.20;2.50;;;;;;;14.45;77.10;99640.02;130926;1254;107782;-79
2023/10/07 03:29:30;;;;;;;4.60;2.30;;;;;;;14.44;76.81;99641.60;130964;1257;108601;-78
2023/10/07 03:32:54;;;;;;;5.60;2.70;;;;;;;14.46;76.85;99646.14;130891;1256;108521;-79
2023/10/07 03:36:15;;;;;;;4.50;2.70;;;;;;;14.53;76.70;99641.02;130910;1258;107133;-78
2023/10/07 03:39:42;;;;;;;4.20;2.80;;;;;;;14.59;76.52;99631.27;130963;1254;105667;-78
2023/10/07 03:42:47;;;;;;;4.10;2.50;;;;;;;14.65;76.49;99628.13;131009;1257;108780;-80
2023/10/07 03:45:56;;;;;;;4.80;2.60;;;;;;;14.67;76.39;99628.81;130956;1254;106892;-78
2023/10/07 03:49:06;;;;;;;5.10;2.50;;;;;;;14.70;76.43;99624.36;131075;1256;107135;-78
2023/10/07 03:52:13;;;;;;;4.70;2.40;;;;;;;14.72;76.29;99613.75;130955;1257;107767;-78
2023/10/07 03:55:19;;;;;;;5.00;2.50;;;;;;;14.72;76.72;99613.59;130863;1257;108657;-79
2023/10/07 03:58:27;;;;;;;4.20;2.30;;;;;;;14.72;76.72;99618.23;130982;1257;107451;-78
2023/10/07 04:01:33;;;;;;;3.80;2.30;;;;;;;14.75;76.75;99615.18;130938;1254;107616;-78
2023/10/07 04:04:41;;;;;;;4.80;2.70;;;;;;;14.79;76.79;99618.90;131047;1253;107689;-78
2023/10/07 04:07:48;;;;;;;5.80;2.80;;;;;;;14.83;76.66;99618.89;131028;1260;107182;-78
2023/10/07 04:10:54;;;;;;;4.20;2.60;;;;;;;14.87;76.75;99620.23;130927;1254;106552;-78
2023/10/07 04:14:07;;;;;;;6.00;2.80;;;;;;;14.89;76.76;99622.10;131003;1255;108626;-78
2023/10/07 04:17:13;;;;;;;4.90;2.80;;;;;;;14.89;76.87;99622.43;130974;1254;106341;-78
2023/10/07 04:20:20;;;;;;;6.40;2.50;;;;;;;14.88;77.03;99619.73;130893;1254;108727;-78
2023/10/07 04:23:26;;;;;;;4.80;2.30;;;;;;;14.87;77.33;99614.83;130968;1257;108401;-78
2023/10/07 04:26:33;;;;;;;6.00;2.30;;;;;;;14.87;77.35;99612.50;130973;1257;107148;-80
2023/10/07 04:29:38;;;;;;;4.80;2.60;;;;;;;14.89;77.39;99614.38;131025;1267;105958;-78
2023/10/07 04:32:52;;;;;;;4.60;2.00;;;;;;;14.92;77.54;99611.23;130965;1260;106682;-78
2023/10/07 04:36:03;;;;;;;4.20;2.60;;;;;;;14.93;77.39;99603.86;131123;1255;107810;-79
2023/10/07 04:39:17;;;;;;;4.60;2.90;;;;;;;14.93;77.51;99604.44;131005;1258;106467;-79
2023/10/07 04:42:35;;;;;;;5.20;2.80;;;;;;;14.92;77.41;99604.94;130991;1256;108802;-78
2023/10/07 04:45:49;;;;;;;3.90;2.40;;;;;;;14.90;77.54;99605.50;131093;1255;107773;-79
2023/10/07 04:48:56;;;;;;;4.50;2.20;;;;;;;14.90;77.62;99604.83;131068;1253;106559;-80
2023/10/07 04:52:04;;;;;;;4.00;2.50;;;;;;;14.92;77.75;99595.05;130847;1258;106463;-79
2023/10/07 04:55:13;;;;;;;5.70;2.60;;;;;;;14.97;77.67;99597.11;130979;1258;107935;-79
2023/10/07 04:58:24;;;;;;;6.80;2.70;;;;;;;15.01;77.66;99599.12;131045;1253;108379;-79
2023/10/07 05:01:31;;;;;;;4.20;2.50;;;;;;;15.04;77.73;99598.47;130933;1258;106795;-78
2023/10/07 05:04:39;;;;;;;4.30;2.60;;;;;;;15.05;77.70;99596.08;131097;1256;106578;-79
2023/10/07 05:07:44;;;;;;;4.90;2.50;;;;;;;15.05;78.04;99597.89;131151;1258;107527;-79
2023/10/07 05:10:52;;;;;;;6.20;2.60;;;;;;;15.03;78.12;99592.19;130927;1255;107818;-77
2023/10/07 05:13:58;;;;;;;4.30;2.40;;;;;;;15.04;78.23;99607.36;132407;1252;107770;-79
2023/10/07 05:17:10;;;;;;;4.30;2.30;;;;;;;15.06;78.32;99609.69;135040;1252;108391;-80
2023/10/07 05:20:27;;;;;;;;;;;;;;;15.10;78.55;99613.02;131032;1254;107545;-78
2023/10/07 05:23:33;;;;;;;5.60;2.50;;;;;;;15.12;78.66;99605.34;131310;1253;106340;-80
2023/10/07 05:26:40;;;;;;;5.90;2.70;;;;;;;15.14;78.62;99608.98;131554;1252;109187;-82
2023/10/07 05:29:46;;;;;;;4.90;2.70;;;;;;;15.13;78.85;99599.35;131271;1256;106654;-83
2023/10/07 05:32:52;;;;;;;4.50;2.50;;;;;;;15.14;78.69;99601.09;131117;1256;107869;-80
2023/10/07 05:36:08;;;;;;;5.10;2.70;;;;;;;15.15;78.91;99604.11;131070;1253;107416;-82
2023/10/07 05:39:15;;;;;;;4.40;2.60;;;;;;;15.20;78.84;99606.86;131141;1253;108378;-82
2023/10/07 05:42:21;;;;;;;6.40;2.50;;;;;;;15.24;78.86;99610.48;131056;1256;107621;-83
2023/10/07 05:45:28;;;;;;;5.90;3.00;;;;;;;15.26;78.87;99616.11;131095;1258;106741;-81
2023/10/07 05:48:37;;;;;;;4.60;2.60;;;;;;;15.27;78.92;99619.48;131120;1257;107227;-81
2023/10/07 05:51:44;;;;;;;5.50;2.60;;;;;;;15.27;78.85;99618.85;131049;1265;105566;-81
2023/10/07 05:54:51;;;;;;;6.80;2.70;;;;;;;15.25;79.08;99619.59;131106;1257;107858;-81
2023/10/07 05:57:58;;;;;;;6.10;2.50;;;;;;;15.27;79.09;99623.73;131096;1267;107523;-81
2023/10/07 06:01:03;;;;;;;5.20;2.40;;;;;;;15.32;79.18;99634.67;131214;1254;106836;-81
2023/10/07 06:04:11;;;;;;;6.30;2.80;;;;;;;15.35;79.46;99638.15;131084;1254;105810;-82
2023/10/07 06:07:21;;;;;;;5.40;2.70;;;;;;;15.36;79.29;99635.63;131044;1253;107081;-83
2023/10/07 06:10:27;;;;;;;6.00;2.90;;;;;;;15.37;79.54;99638.21;131000;1260;108027;-81
2023/10/07 06:13:37;;;;;;;6.40;2.90;;;;;;;15.38;79.65;99627.87;130977;1254;107345;-84
2023/10/07 06:16:43;;;;;;;5.10;2.50;;;;;;;15.42;80.38;99634.71;131094;1256;108522;-83
2023/10/07 06:19:48;;;;;;;4.90;2.50;;;;;;;15.45;80.02;99633.77;130986;1257;108767;-82
2023/10/07 06:22:56;;;;;;;9.50;3.00;;;;;;;15.50;80.10;99638.98;131055;1254;107512;-83
2023/10/07 06:26:09;;;;;;;3.70;2.50;;;;;;;15.53;80.24;99624.42;131139;1257;106884;-81
2023/10/07 06:29:18;;;;;;;3.70;2.70;;;;;;;15.57;80.18;99611.00;131061;1254;106504;-82
2023/10/07 06:32:25;;;;;;;6.00;2.40;;;;;;;15.64;80.35;99621.98;131256;1253;108011;-83
2023/10/07 06:35:33;;;;;;;4.90;2.40;;;;;;;15.71;80.36;99631.77;131150;1256;106610;-81
2023/10/07 06:38:45;;;;;;;7.70;3.30;;;;;;;15.80;80.39;99636.54;131135;1256;107785;-81
2023/10/07 06:41:53;;;;;;;5.70;2.80;;;;;;;15.85;80.56;99640.66;131130;1256;106637;-80
2023/10/07 06:45:06;;;;;;;5.60;2.60;;;;;;;15.95;80.57;99634.77;131063;1256;107748;-81
2023/10/07 06:48:12;;;;;;;3.70;2.50;;;;;;;16.02;80.45;99636.32;131116;1256;108166;-81
2023/10/07 06:51:17;;;;;;;5.10;2.60;;;;;;;16.06;80.64;99642.54;131090;1256;108719;-81
2023/10/07 06:54:32;;;;;;;4.90;2.70;;;;;;;16.09;80.60;99640.35;131444;1254;107786;-81
2023/10/07 06:57:38;;;;;;;4.40;2.80;;;;;;;16.15;80.65;99630.30;131390;1256;105764;-82
2023/10/07 07:00:48;;;;;;;4.60;3.00;;;;;;;16.19;80.67;99634.19;131129;1254;108747;-82
2023/10/07 07:03:54;;;;;;;5.70;2.90;;;;;;;16.23;80.51;99627.60;131267;1253;107677;-81
2023/10/07 07:07:09;;;;;;;8.60;5.00;;;;;;;16.28;80.67;99617.84;131282;1253;107306;-81
2023/10/07 07:10:16;;;;;;;5.50;3.20;;;;;;;16.30;80.70;99614.98;131187;1267;107082;-81
2023/10/07 07:13:26;;;;;;;4.10;2.70;;;;;;;16.33;80.82;99617.35;131181;1256;108121;-80
2023/10/07 07:16:41;;;;;;;5.40;2.70;;;;;;;16.38;80.78;99612.71;131026;1253;106957;-80
2023/10/07 07:20:05;;;;;;;4.80;2.60;;;;;;;16.44;80.80;99620.05;131075;1257;107645;-81
2023/10/07 07:23:15;;;;;;;5.90;2.60;;;;;;;16.51;80.66;99621.58;131360;1256;106115;-80
2023/10/07 07:26:21;;;;;;;5.90;3.00;;;;;;;16.57;80.61;99612.42;131415;1253;108863;-81
2023/10/07 07:29:27;;;;;;;4.90;2.60;;;;;;;16.65;80.52;99616.27;131181;1251;106969;-82
2023/10/07 07:32:35;;;;;;;4.10;2.60;;;;;;;16.74;80.45;99605.20;131627;1252;107785;-82
2023/10/07 07:35:43;;;;;;;4.20;2.60;;;;;;;16.88;80.22;99603.08;131499;1252;107104;-80
2023/10/07 07:38:51;;;;;;;4.90;2.50;;;;;;;17.05;79.98;99597.11;131326;1257;107909;-81
2023/10/07 07:41:58;;;;;;;5.20;2.80;;;;;;;17.22;79.85;99607.52;131611;1253;107999;-80
2023/10/07 07:45:15;;;;;;;3.70;2.30;;;;;;;17.37;79.52;99611.46;131488;1253;108650;-81
2023/10/07 07:48:20;;;;;;;3.50;2.40;;;;;;;17.44;79.38;99612.79;132088;1254;106739;-83
2023/10/07 07:51:26;;;;;;;4.10;2.30;;;;;;;17.37;78.93;99616.64;131360;1253;106683;-83
2023/10/07 07:54:32;;;;;;;4.40;2.60;;;;;;;17.38;78.89;99605.76;131341;1256;108447;-83
2023/10/07 07:57:44;;;;;;;4.10;2.60;;;;;;;17.44;78.74;99607.19;131254;1255;106512;-83
2023/10/07 08:00:58;;;;;;;;;;;;;;;17.44;78.44;99608.77;131490;1256;108909;-82
2023/10/07 08:04:09;;;;;;;3.60;2.50;;;;;;;17.43;78.69;99625.08;131426;1253;106732;-83
2023/10/07 08:07:24;;;;;;;3.90;2.60;;;;;;;17.52;78.41;99614.42;132060;1254;107535;-83
2023/10/07 08:10:30;;;;;;;4.50;2.80;;;;;;;17.64;78.29;99633.16;131357;1256;108000;-82
2023/10/07 08:13:35;;;;;;;4.30;2.70;;;;;;;17.75;77.72;99628.63;131298;1253;106826;-83
2023/10/07 08:16:50;;;;;;;4.10;2.10;;;;;;;17.86;77.81;99629.64;131262;1253;107544;-83
2023/10/07 08:19:58;;;;;;;4.50;2.40;;;;;;;17.87;77.19;99628.02;131129;1257;106611;-82
2023/10/07 08:23:15;;;;;;;3.50;2.50;;;;;;;17.74;76.64;99643.00;132164;1252;107862;-82
2023/10/07 08:26:22;;;;;;;4.70;2.80;;;;;;;17.60;76.78;99638.38;133034;1252;107842;-83
2023/10/07 08:29:34;;;;;;;5.40;2.40;;;;;;;17.51;77.36;99634.88;131963;1256;106751;-83
2023/10/07 08:32:42;;;;;;;4.10;2.30;;;;;;;17.53;77.60;99638.98;131099;1253;107414;-82
2023/10/07 08:35:49;;;;;;;3.90;2.20;;;;;;;17.57;77.27;99641.50;131555;1253;106850;-82
2023/10/07 08:38:56;;;;;;;4.40;2.70;;;;;;;17.63;77.09;99635.38;131017;1253;108842;-82
2023/10/07 08:42:12;;;;;;;3.30;2.20;;;;;;;17.75;77.05;99641.21;131032;1254;107317;-83
2023/10/07 08:45:23;;;;;;;4.00;2.50;;;;;;;17.82;76.68;99648.86;130951;1253;108060;-82
2023/10/07 08:48:38;;;;;;;4.40;3.20;;;;;;;17.91;76.80;99644.61;130988;1256;107097;-82
2023/10/07 08:51:45;;;;;;;4.30;2.90;;;;;;;18.05;76.46;99635.39;130965;1259;107531;-82
2023/10/07 08:54:52;;;;;;;5.20;2.60;;;;;;;18.17;76.01;99637.96;131037;1256;108801;-84
2023/10/07 08:58:02;;;;;;;4.40;2.40;;;;;;;18.30;75.93;99630.73;131012;1256;106763;-83
2023/10/07 09:01:17;;;;;;;4.00;2.50;;;;;;;18.42;75.37;99631.19;130990;1258;107985;-82
2023/10/07 09:04:23;;;;;;;3.80;2.60;;;;;;;18.49;74.53;99628.52;131052;1256;107769;-83
2023/10/07 09:07:32;;;;;;;4.30;2.40;;;;;;;18.47;74.12;99635.42;131052;1256;107678;-82
2023/10/07 09:10:38;;;;;;;3.00;2.40;;;;;;;18.48;74.86;99637.84;131075;1256;107845;-82
2023/10/07 09:13:44;;;;;;;4.20;2.70;;;;;;;18.58;74.93;99641.58;131061;1253;107772;-83
2023/10/07 09:16:50;;;;;;;3.90;2.50;;;;;;;18.69;74.35;99647.50;131551;1252;106631;-82
2023/10/07 09:20:00;;;;;;;4.20;2.40;;;;;;;18.70;73.95;99642.30;132013;1253;107766;-83
2023/10/07 09:23:15;;;;;;;3.60;2.20;;;;;;;18.60;73.42;99646.17;131449;1253;108473;-83
2023/10/07 09:26:30;;;;;;;2.90;2.20;;;;;;;18.40;72.97;99653.68;131216;1253;106769;-81
2023/10/07 09:29:36;;;;;;;3.40;2.30;;;;;;;18.16;73.64;99663.86;131066;1256;106574;-82
2023/10/07 09:32:44;;;;;;;4.90;2.50;;;;;;;17.99;74.94;99674.09;130919;1253;106380;-81
2023/10/07 09:36:22;;;;;;;3.40;2.30;;;;;;;17.71;76.11;99679.88;131261;1253;108024;-82
2023/10/07 09:42:58;;;;;;;4.50;2.70;;;;;;;17.25;78.32;99695.99;127196;1292;636028;-83
2023/10/07 09:46:03;;;;;;;3.50;2.70;;;;;;;17.06;78.42;99687.64;130223;1263;106824;-82
2023/10/07 09:49:14;;;;;;;6.80;3.00;;;;;;;16.96;78.91;99690.56;130431;1264;106372;-83
2023/10/07 09:52:29;;;;;;;4.90;2.90;;;;;;;16.83;79.33;99695.48;130498;1268;107611;-83
2023/10/07 09:55:48;;;;;;;5.30;3.10;;;;;;;16.72;79.44;99688.95;130747;1261;252546;-82
2023/10/07 09:59:15;;;;;;;4.60;2.80;;;;;;;16.67;79.31;99678.67;130902;1259;108197;-83
2023/10/07 10:02:43;;;;;;;5.90;3.50;;;;;;;16.66;79.28;99682.41;130837;1260;107719;-82
2023/10/07 10:06:07;;;;;;;4.20;3.20;;;;;;;16.62;79.01;99683.02;130679;1261;107655;-83
2023/10/07 10:09:14;;;;;;;5.80;3.30;;;;;;;16.58;79.07;99678.50;130695;1257;107819;-83
2023/10/07 10:12:27;;;;;;;4.80;2.80;;;;;;;16.57;78.82;99683.56;130726;1272;107881;-82
2023/10/07 10:15:57;;;;;;;6.30;3.20;;;;;;;16.62;78.81;99683.48;130663;1260;108390;-83
2023/10/07 10:19:22;;;;;;;4.20;3.00;;;;;;;16.66;78.75;99679.52;130669;1261;108675;-83
2023/10/07 10:22:29;;;;;;;4.70;3.20;;;;;;;16.68;78.68;99677.23;130695;1269;107682;-82
2023/10/07 10:25:37;;;;;;;6.10;3.10;;;;;;;16.70;78.61;99678.80;131099;1257;108181;-82
2023/10/07 10:28:43;;;;;;;5.20;3.00;;;;;;;16.70;78.68;99677.11;131703;1256;109101;-82
2023/10/07 10:31:58;;;;;;;6.70;3.30;;;;;;;16.66;79.01;99676.56;130934;1260;106585;-83
2023/10/07 10:35:06;;;;;;;5.30;3.00;;;;;;;16.61;79.73;99680.91;130770;1260;107834;-83
2023/10/07 10:38:13;;;;;;;5.40;3.40;;;;;;;16.57;79.66;99685.23;130702;1259;106977;-83
2023/10/07 10:41:30;;;;;;;4.30;3.20;;;;;;;16.55;80.20;99684.14;130751;1256;107420;-83
2023/10/07 10:44:39;;;;;;;5.70;3.20;;;;;;;16.55;80.17;99685.05;130804;1256;107576;-83
2023/10/07 10:47:50;;;;;;;5.40;3.50;;;;;;;16.55;80.67;99688.73;130676;1258;106642;-83
2023/10/07 10:50:56;;;;;;;5.10;3.50;;;;;;;16.49;80.79;99690.15;130769;1257;107373;-83
2023/10/07 10:54:02;;;;;;;5.20;2.90;;;;;;;16.44;81.05;99699.59;131394;1256;107773;-83
2023/10/07 10:57:14;;;;;;;5.20;3.60;;;;;;;16.39;81.44;99703.55;131061;1256;108774;-83
2023/10/07 11:00:21;;;;;;;4.70;3.70;;;;;;;16.27;84.00;99706.42;130699;1257;107078;-83
2023/10/07 11:03:27;;;;;;;5.30;3.80;;;;;;;16.04;87.14;99706.86;131277;1256;108087;-83
2023/10/07 11:06:33;;;;;;;4.00;3.50;;;;;;;15.84;86.84;99713.50;131147;1256;106968;-83
2023/10/07 11:09:39;;;;;;;6.20;3.30;;;;;;;15.68;89.13;99717.16;131130;1254;106453;-84
2023/10/07 11:12:51;;;;;;;3.40;2.90;;;;;;;15.55;89.58;99721.31;131066;1252;107665;-82
2023/10/07 11:16:05;;;;;;;3.00;2.30;;;;;;;15.38;91.54;99724.06;131000;1253;108937;-82
2023/10/07 11:19:15;;;;;;;3.30;2.20;;;;;;;15.31;89.30;99721.46;131071;1256;107358;-82
2023/10/07 11:22:21;;;;;;;3.10;2.10;;;;;;;15.26;91.41;99729.33;130940;1254;106368;-82
2023/10/07 11:25:28;;;;;;;2.40;1.70;;;;;;;15.18;91.97;99734.32;131036;1257;106951;-82
2023/10/07 11:28:34;;;;;;;2.70;1.40;;;;;;;15.11;91.42;99728.16;131067;1256;107699;-82
2023/10/07 11:31:41;;;;;;;2.50;1.30;;;;;;;15.04;92.12;99725.83;130987;1256;107119;-82
2023/10/07 11:34:46;;;;;;;1.50;0.90;;;;;;;15.02;91.48;99720.57;131096;1256;106918;-82
2023/10/07 11:37:57;;;;;;;1.90;1.10;;;;;;;15.01;93.95;99727.73;130928;1256;107776;-82
2023/10/07 11:41:06;;;;;;;1.60;1.00;;;;;;;14.96;92.64;99723.56;131041;1257;107924;-81
2023/10/07 11:44:19;;;;;;;1.40;0.90;;;;;;;14.87;95.27;99728.42;131019;1256;108605;-82
2023/10/07 11:47:25;;;;;;;1.50;1.00;;;;;;;14.81;94.83;99725.43;131379;1256;107150;-83
2023/10/07 11:50:35;;;;;;;1.20;0.80;;;;;;;14.79;94.65;99734.30;131729;1252;107227;-82
2023/10/07 11:53:41;;;;;;;1.60;0.60;;;;;;;14.78;93.49;99726.61;132481;1254;108770;-83
2023/10/07 11:56:47;;;;;;;2.60;0.90;;;;;;;14.81;93.43;99721.88;131334;1254;107877;-82
2023/10/07 11:59:53;;;;;;;2.20;0.90;;;;;;;14.83;92.82;99736.36;131807;1254;108640;-83
2023/10/07 12:03:04;;;;;;;2.80;0.90;;;;;;;14.86;92.91;99737.66;131134;1254;107705;-83
2023/10/07 12:06:11;;;;;;;2.30;0.80;;;;;;;14.86;93.86;99736.77;131514;1254;106968;-82
2023/10/07 12:09:20;;;;;;;2.30;0.70;;;;;;;14.84;94.66;99740.25;131055;1256;106511;-82
2023/10/07 12:12:27;;;;;;;1.90;0.90;;;;;;;14.73;94.58;99739.25;131050;1256;107701;-80
2023/10/07 12:15:32;;;;;;;1.60;0.70;;;;;;;14.74;94.45;99737.56;131023;1254;108578;-82
2023/10/07 12:18:39;;;;;;;1.90;0.90;;;;;;;14.77;94.42;99730.77;131285;1256;106581;-83
2023/10/07 12:21:49;;;;;;;2.80;0.70;;;;;;;14.81;93.54;99719.53;131123;1256;107375;-80
2023/10/07 12:24:54;;;;;;;2.20;0.70;;;;;;;14.88;92.85;99711.54;131224;1248;107485;-82
2023/10/07 12:28:05;;;;;;;3.00;0.80;;;;;;;14.93;92.71;99707.93;131436;1254;108333;-81
2023/10/07 12:31:14;;;;;;;2.50;0.70;;;;;;;14.98;92.29;99699.58;131654;1248;108293;-83
2023/10/07 12:34:20;;;;;;;2.30;0.70;;;;;;;15.04;92.26;99696.92;131302;1253;106641;-83
2023/10/07 12:37:27;;;;;;;2.00;0.70;;;;;;;15.07;91.91;99695.46;131447;1253;107870;-83
2023/10/07 12:40:33;;;;;;;2.60;0.70;;;;;;;15.16;91.44;99693.75;131541;1250;107178;-83
2023/10/07 12:43:38;;;;;;;1.40;0.80;;;;;;;15.25;91.29;99693.31;131416;1253;108049;-84
2023/10/07 12:46:44;;;;;;;3.70;0.90;;;;;;;15.32;91.25;99694.55;131290;1253;107819;-83
2023/10/07 12:49:53;;;;;;;2.30;1.00;;;;;;;15.37;91.21;99694.54;131544;1264;107594;-83
2023/10/07 12:53:01;;;;;;;2.00;1.20;;;;;;;15.37;90.99;99699.13;131360;1250;108424;-83
2023/10/07 12:56:17;;;;;;;3.10;0.80;;;;;;;15.33;90.63;99708.77;131314;1253;106286;-83
2023/10/07 12:59:26;;;;;;;1.70;0.80;;;;;;;15.32;90.60;99709.94;131639;1252;106883;-82
2023/10/07 13:02:42;;;;;;;2.40;1.10;;;;;;;15.32;90.47;99712.49;131930;1253;107847;-83
2023/10/07 13:06:01;;;;;;;1.40;0.80;;;;;;;15.36;90.63;99714.29;131590;1251;108422;-83
2023/10/07 13:09:15;;;;;;;1.50;0.80;;;;;;;15.35;90.71;99712.35;131454;1252;108579;-81
2023/10/07 13:12:22;;;;;;;1.20;0.90;;;;;;;15.38;90.61;99709.70;131500;1253;107732;-82
2023/10/07 13:15:33;;;;;;;2.40;1.00;;;;;;;15.46;90.22;99716.64;131920;1250;107924;-81
2023/10/07 13:18:41;;;;;;;2.40;1.10;;;;;;;15.45;90.17;99717.20;131335;1250;106887;-82
2023/10/07 13:21:46;;;;;;;79.10;37.50;;;;;;;15.41;90.24;99719.83;131683;1248;108438;-82
2023/10/07 13:24:52;;;;;;;30.30;13.00;;;;;;;15.39;90.45;99721.89;131314;1253;106831;-82
2023/10/07 13:28:00;;;;;;;50.90;22.70;;;;;;;15.37;90.07;99724.20;131573;1250;107716;-82
2023/10/07 13:31:06;;;;;;;26.50;14.60;;;;;;;15.36;90.22;99709.33;131441;1252;108109;-82
2023/10/07 13:34:12;;;;;;;165.60;83.70;;;;;;;15.29;89.99;99703.17;131468;1250;106346;-83
2023/10/07 13:37:22;;;;;;;31.10;16.40;;;;;;;15.25;90.07;99698.27;131959;1250;106461;-82
2023/10/07 13:40:39;;;;;;;73.70;35.60;;;;;;;15.19;90.11;99696.91;131393;1253;107591;-83
2023/10/07 13:43:45;;;;;;;12.90;6.30;;;;;;;15.10;90.15;99698.21;131402;1251;107682;-83
2023/10/07 13:46:51;;;;;;;180.30;109.00;;;;;;;15.03;90.14;99699.98;131605;1250;107420;-82
2023/10/07 13:49:57;;;;;;;16.60;9.90;;;;;;;15.02;90.13;99696.91;131371;1253;106218;-82
2023/10/07 13:53:12;;;;;;;217.00;131.20;;;;;;;14.97;89.93;99698.66;131225;1247;107269;-82
2023/10/07 13:56:23;;;;;;;21.80;14.70;;;;;;;14.92;89.87;99705.57;131498;1249;107740;-82
2023/10/07 13:59:29;;;;;;;15.70;11.40;;;;;;;14.86;90.27;99703.73;131357;1250;107713;-82
2023/10/07 14:02:36;;;;;;;7.20;4.60;;;;;;;14.85;90.52;99701.01;131427;1253;106575;-82
2023/10/07 14:05:48;;;;;;;8.70;3.40;;;;;;;14.89;90.34;99701.49;131391;1251;108538;-82
2023/10/07 14:08:54;;;;;;;6.40;2.30;;;;;;;14.89;90.47;99700.73;131753;1253;107749;-83
2023/10/07 14:12:06;;;;;;;5.20;3.50;;;;;;;14.88;90.65;99704.99;131298;1253;107689;-82
2023/10/07 14:15:15;;;;;;;7.20;5.20;;;;;;;14.86;90.79;99701.26;131622;1252;106700;-83
2023/10/07 14:18:23;;;;;;;17.70;11.80;;;;;;;14.92;90.72;99701.64;131368;1266;106708;-82
2023/10/07 14:21:30;;;;;;;19.80;12.30;;;;;;;15.00;90.47;99703.88;131819;1253;107043;-84
2023/10/07 14:24:37;;;;;;;7.50;4.50;;;;;;;15.01;90.75;99704.98;131339;1249;106687;-81
2023/10/07 14:27:42;;;;;;;33.30;16.80;;;;;;;14.90;90.84;99702.91;131675;1250;106703;-82
2023/10/07 14:30:48;;;;;;;13.90;7.10;;;;;;;14.87;90.72;99713.55;131297;1255;107772;-82
2023/10/07 14:33:54;;;;;;;11.40;5.10;;;;;;;14.87;90.63;99714.41;131404;1247;108650;-81
2023/10/07 14:37:00;;;;;;;12.50;7.10;;;;;;;14.84;90.79;99714.10;131337;1247;107301;-81